sensor_id;sensor_type;location;lat;lon;timestamp;temperature;humidity
12720;DHT22;6424;48.520;11.228;2022-07-23T00:00:15;22.10;99.90
12720;DHT22;6424;48.520;11.228;2022-07-23T00:02:56;22.10;99.90
12720;DHT22;6424;48.520;11.228;2022-07-23T00:05:37;22.20;99.90
12720;DHT22;6424;48.520;11.228;2022-07-23T00:08:17;22.10;99.90
12720;DHT22;6424;48.520;11.228;2022-07-23T00:10:58;22.10;99.90
12720;DHT22;6424;48.520;11.228;2022-07-23T00:13:41;22.10;99.90
12720;DHT22;6424;48.520;11.228;2022-07-23T00:16:21;22.10;99.90
12720;DHT22;6424;48.520;11.228;2022-07-23T00:19:02;22.10;99.90
12720;DHT22;6424;48.520;11.228;2022-07-23T00:21:44;22.20;99.90
12720;DHT22;6424;48.520;11.228;2022-07-23T00:24:25;22.20;99.90
12720;DHT22;6424;48.520;11.228;2022-07-23T00:27:06;22.20;99.90
12720;DHT22;6424;48.520;11.228;2022-07-23T00:29:46;22.20;99.90
12720;DHT22;6424;48.520;11.228;2022-07-23T00:32:27;22.20;99.90
12720;DHT22;6424;48.520;11.228;2022-07-23T00:35:08;22.10;99.90
12720;DHT22;6424;48.520;11.228;2022-07-23T00:37:49;22.00;99.90
12720;DHT22;6424;48.520;11.228;2022-07-23T00:40:30;22.00;99.90
12720;DHT22;6424;48.520;11.228;2022-07-23T00:43:11;21.90;99.90
12720;DHT22;6424;48.520;11.228;2022-07-23T00:45:52;21.90;99.90
12720;DHT22;6424;48.520;11.228;2022-07-23T00:48:33;21.90;99.90
12720;DHT22;6424;48.520;11.228;2022-07-23T00:50:59;21.90;99.90
12720;DHT22;6424;48.520;11.228;2022-07-23T00:53:39;21.90;99.90
12720;DHT22;6424;48.520;11.228;2022-07-23T00:56:20;22.00;99.90
12720;DHT22;6424;48.520;11.228;2022-07-23T00:59:01;22.00;99.90
12720;DHT22;6424;48.520;11.228;2022-07-23T01:01:42;22.00;99.90
12720;DHT22;6424;48.520;11.228;2022-07-23T01:06:51;22.10;99.90
12720;DHT22;6424;48.520;11.228;2022-07-23T01:09:32;22.10;99.90
12720;DHT22;6424;48.520;11.228;2022-07-23T01:12:13;22.00;99.90
12720;DHT22;6424;48.520;11.228;2022-07-23T01:14:59;21.70;99.90
12720;DHT22;6424;48.520;11.228;2022-07-23T01:17:40;21.40;99.90
12720;DHT22;6424;48.520;11.228;2022-07-23T01:20:21;21.10;99.90
12720;DHT22;6424;48.520;11.228;2022-07-23T01:23:02;20.90;99.90
12720;DHT22;6424;48.520;11.228;2022-07-23T01:25:52;20.70;99.90
12720;DHT22;6424;48.520;11.228;2022-07-23T01:28:32;20.60;99.90
12720;DHT22;6424;48.520;11.228;2022-07-23T01:31:13;20.50;99.90
12720;DHT22;6424;48.520;11.228;2022-07-23T01:33:54;20.40;99.90
12720;DHT22;6424;48.520;11.228;2022-07-23T01:36:35;20.40;99.90
12720;DHT22;6424;48.520;11.228;2022-07-23T01:39:16;20.50;99.90
12720;DHT22;6424;48.520;11.228;2022-07-23T01:41:57;20.50;99.90
12720;DHT22;6424;48.520;11.228;2022-07-23T01:44:38;20.60;99.90
12720;DHT22;6424;48.520;11.228;2022-07-23T01:47:19;20.60;99.90
12720;DHT22;6424;48.520;11.228;2022-07-23T01:50:00;20.50;99.90
12720;DHT22;6424;48.520;11.228;2022-07-23T01:52:40;20.50;99.90
12720;DHT22;6424;48.520;11.228;2022-07-23T01:55:21;20.40;99.90
12720;DHT22;6424;48.520;11.228;2022-07-23T01:58:02;20.30;99.90
12720;DHT22;6424;48.520;11.228;2022-07-23T02:00:28;20.20;99.90
12720;DHT22;6424;48.520;11.228;2022-07-23T02:03:09;20.10;99.90
12720;DHT22;6424;48.520;11.228;2022-07-23T02:05:35;20.00;99.90
12720;DHT22;6424;48.520;11.228;2022-07-23T02:08:17;19.90;99.90
12720;DHT22;6424;48.520;11.228;2022-07-23T02:10:58;19.80;99.90
12720;DHT22;6424;48.520;11.228;2022-07-23T02:13:38;19.70;99.90
12720;DHT22;6424;48.520;11.228;2022-07-23T02:16:19;19.60;99.90
12720;DHT22;6424;48.520;11.228;2022-07-23T02:19:00;19.50;99.90
12720;DHT22;6424;48.520;11.228;2022-07-23T02:21:41;19.30;99.90
12720;DHT22;6424;48.520;11.228;2022-07-23T02:24:07;19.20;99.90
12720;DHT22;6424;48.520;11.228;2022-07-23T02:26:48;19.20;99.90
12720;DHT22;6424;48.520;11.228;2022-07-23T02:29:14;19.10;99.90
12720;DHT22;6424;48.520;11.228;2022-07-23T02:31:54;19.00;99.90
12720;DHT22;6424;48.520;11.228;2022-07-23T02:34:35;19.00;99.90
12720;DHT22;6424;48.520;11.228;2022-07-23T02:37:16;18.90;99.90
12720;DHT22;6424;48.520;11.228;2022-07-23T02:39:57;18.80;99.90
12720;DHT22;6424;48.520;11.228;2022-07-23T02:42:38;18.80;99.90
12720;DHT22;6424;48.520;11.228;2022-07-23T02:45:19;18.70;99.90
12720;DHT22;6424;48.520;11.228;2022-07-23T02:48:00;18.60;99.90
12720;DHT22;6424;48.520;11.228;2022-07-23T02:50:41;18.60;99.90
12720;DHT22;6424;48.520;11.228;2022-07-23T02:53:22;18.60;99.90
12720;DHT22;6424;48.520;11.228;2022-07-23T02:56:03;18.60;99.90
12720;DHT22;6424;48.520;11.228;2022-07-23T02:58:44;18.60;99.90
12720;DHT22;6424;48.520;11.228;2022-07-23T03:01:10;18.60;99.90
12720;DHT22;6424;48.520;11.228;2022-07-23T03:03:51;18.50;99.90
12720;DHT22;6424;48.520;11.228;2022-07-23T03:06:31;18.60;99.90
12720;DHT22;6424;48.520;11.228;2022-07-23T03:09:12;18.50;99.90
12720;DHT22;6424;48.520;11.228;2022-07-23T03:11:53;18.50;99.90
12720;DHT22;6424;48.520;11.228;2022-07-23T03:14:19;18.50;99.90
12720;DHT22;6424;48.520;11.228;2022-07-23T03:17:00;18.50;99.90
12720;DHT22;6424;48.520;11.228;2022-07-23T03:19:26;18.40;99.90
12720;DHT22;6424;48.520;11.228;2022-07-23T03:22:07;18.40;99.90
12720;DHT22;6424;48.520;11.228;2022-07-23T03:24:48;18.40;99.90
12720;DHT22;6424;48.520;11.228;2022-07-23T03:27:35;18.40;99.90
12720;DHT22;6424;48.520;11.228;2022-07-23T03:30:15;18.40;99.90
12720;DHT22;6424;48.520;11.228;2022-07-23T03:32:56;18.40;99.90
12720;DHT22;6424;48.520;11.228;2022-07-23T03:35:37;18.40;99.90
12720;DHT22;6424;48.520;11.228;2022-07-23T03:38:18;18.40;99.90
12720;DHT22;6424;48.520;11.228;2022-07-23T03:40:44;18.40;99.90
12720;DHT22;6424;48.520;11.228;2022-07-23T03:43:24;18.40;99.90
12720;DHT22;6424;48.520;11.228;2022-07-23T03:46:06;18.40;99.90
12720;DHT22;6424;48.520;11.228;2022-07-23T03:48:47;18.40;99.90
12720;DHT22;6424;48.520;11.228;2022-07-23T03:51:12;18.40;99.90
12720;DHT22;6424;48.520;11.228;2022-07-23T03:53:53;18.30;99.90
12720;DHT22;6424;48.520;11.228;2022-07-23T03:56:35;18.30;99.90
12720;DHT22;6424;48.520;11.228;2022-07-23T03:59:16;18.30;99.90
12720;DHT22;6424;48.520;11.228;2022-07-23T04:01:57;18.30;99.90
12720;DHT22;6424;48.520;11.228;2022-07-23T04:04:37;18.40;99.90
12720;DHT22;6424;48.520;11.228;2022-07-23T04:07:18;18.40;99.90
12720;DHT22;6424;48.520;11.228;2022-07-23T04:09:59;18.30;99.90
12720;DHT22;6424;48.520;11.228;2022-07-23T04:12:40;18.30;99.90
12720;DHT22;6424;48.520;11.228;2022-07-23T04:15:20;18.30;99.90
12720;DHT22;6424;48.520;11.228;2022-07-23T04:18:01;18.30;99.90
12720;DHT22;6424;48.520;11.228;2022-07-23T04:20:42;18.40;99.90
12720;DHT22;6424;48.520;11.228;2022-07-23T04:23:23;18.40;99.90
12720;DHT22;6424;48.520;11.228;2022-07-23T04:26:04;18.30;99.90
12720;DHT22;6424;48.520;11.228;2022-07-23T04:28:30;18.30;99.90
12720;DHT22;6424;48.520;11.228;2022-07-23T04:31:11;18.30;99.90
12720;DHT22;6424;48.520;11.228;2022-07-23T04:33:51;18.30;99.90
12720;DHT22;6424;48.520;11.228;2022-07-23T04:36:32;18.40;99.90
12720;DHT22;6424;48.520;11.228;2022-07-23T04:39:14;18.40;99.90
12720;DHT22;6424;48.520;11.228;2022-07-23T04:41:54;18.40;99.90
12720;DHT22;6424;48.520;11.228;2022-07-23T04:44:35;18.50;99.90
12720;DHT22;6424;48.520;11.228;2022-07-23T04:47:16;18.50;99.90
12720;DHT22;6424;48.520;11.228;2022-07-23T04:49:57;18.50;99.90
12720;DHT22;6424;48.520;11.228;2022-07-23T04:52:23;18.50;99.90
12720;DHT22;6424;48.520;11.228;2022-07-23T04:55:04;18.50;99.90
12720;DHT22;6424;48.520;11.228;2022-07-23T04:57:45;18.50;99.90
12720;DHT22;6424;48.520;11.228;2022-07-23T05:00:26;18.50;99.90
12720;DHT22;6424;48.520;11.228;2022-07-23T05:03:07;18.60;99.90
12720;DHT22;6424;48.520;11.228;2022-07-23T05:05:48;18.60;99.90
12720;DHT22;6424;48.520;11.228;2022-07-23T05:08:29;18.60;99.90
12720;DHT22;6424;48.520;11.228;2022-07-23T05:11:10;18.70;99.90
12720;DHT22;6424;48.520;11.228;2022-07-23T05:13:50;18.70;99.90
12720;DHT22;6424;48.520;11.228;2022-07-23T05:16:32;18.70;99.90
12720;DHT22;6424;48.520;11.228;2022-07-23T05:19:12;18.80;99.90
12720;DHT22;6424;48.520;11.228;2022-07-23T05:21:54;18.80;99.90
12720;DHT22;6424;48.520;11.228;2022-07-23T05:24:35;18.80;99.90
12720;DHT22;6424;48.520;11.228;2022-07-23T05:27:15;18.90;99.90
12720;DHT22;6424;48.520;11.228;2022-07-23T05:29:56;18.90;99.90
12720;DHT22;6424;48.520;11.228;2022-07-23T05:32:37;19.00;99.90
12720;DHT22;6424;48.520;11.228;2022-07-23T05:35:18;19.00;99.90
12720;DHT22;6424;48.520;11.228;2022-07-23T05:37:59;19.10;99.90
12720;DHT22;6424;48.520;11.228;2022-07-23T05:40:40;19.10;99.90
12720;DHT22;6424;48.520;11.228;2022-07-23T05:43:21;19.20;99.90
12720;DHT22;6424;48.520;11.228;2022-07-23T05:46:01;19.30;99.90
12720;DHT22;6424;48.520;11.228;2022-07-23T05:48:42;19.40;99.90
12720;DHT22;6424;48.520;11.228;2022-07-23T05:51:24;19.40;99.90
12720;DHT22;6424;48.520;11.228;2022-07-23T05:54:05;19.50;99.90
12720;DHT22;6424;48.520;11.228;2022-07-23T05:56:46;19.60;99.90
12720;DHT22;6424;48.520;11.228;2022-07-23T05:59:27;19.70;99.90
12720;DHT22;6424;48.520;11.228;2022-07-23T06:02:08;19.70;99.90
12720;DHT22;6424;48.520;11.228;2022-07-23T06:04:48;19.70;99.90
12720;DHT22;6424;48.520;11.228;2022-07-23T06:07:29;19.70;99.90
12720;DHT22;6424;48.520;11.228;2022-07-23T06:10:10;19.70;99.90
12720;DHT22;6424;48.520;11.228;2022-07-23T06:12:51;19.60;99.90
12720;DHT22;6424;48.520;11.228;2022-07-23T06:15:32;19.60;99.90
12720;DHT22;6424;48.520;11.228;2022-07-23T06:18:13;19.60;99.90
12720;DHT22;6424;48.520;11.228;2022-07-23T06:20:53;19.60;99.90
12720;DHT22;6424;48.520;11.228;2022-07-23T06:23:35;19.70;99.90
12720;DHT22;6424;48.520;11.228;2022-07-23T06:26:16;19.70;99.90
12720;DHT22;6424;48.520;11.228;2022-07-23T06:28:56;19.70;99.90
12720;DHT22;6424;48.520;11.228;2022-07-23T06:31:37;19.80;99.90
12720;DHT22;6424;48.520;11.228;2022-07-23T06:34:18;19.80;99.90
12720;DHT22;6424;48.520;11.228;2022-07-23T06:37:02;19.90;99.90
12720;DHT22;6424;48.520;11.228;2022-07-23T06:39:43;19.90;99.90
12720;DHT22;6424;48.520;11.228;2022-07-23T06:42:23;20.00;99.90
12720;DHT22;6424;48.520;11.228;2022-07-23T06:45:05;20.00;99.90
12720;DHT22;6424;48.520;11.228;2022-07-23T06:47:46;20.00;99.90
12720;DHT22;6424;48.520;11.228;2022-07-23T06:50:12;20.00;99.90
12720;DHT22;6424;48.520;11.228;2022-07-23T06:52:53;20.10;99.90
12720;DHT22;6424;48.520;11.228;2022-07-23T06:55:19;20.20;99.90
12720;DHT22;6424;48.520;11.228;2022-07-23T06:57:59;20.30;99.90
12720;DHT22;6424;48.520;11.228;2022-07-23T07:00:41;20.40;99.90
12720;DHT22;6424;48.520;11.228;2022-07-23T07:03:06;20.50;99.90
12720;DHT22;6424;48.520;11.228;2022-07-23T07:05:32;20.50;99.90
12720;DHT22;6424;48.520;11.228;2022-07-23T07:08:13;20.60;99.90
12720;DHT22;6424;48.520;11.228;2022-07-23T07:10:54;20.60;99.90
12720;DHT22;6424;48.520;11.228;2022-07-23T07:13:34;20.60;99.90
12720;DHT22;6424;48.520;11.228;2022-07-23T07:16:00;20.60;99.90
12720;DHT22;6424;48.520;11.228;2022-07-23T07:18:41;20.60;99.90
12720;DHT22;6424;48.520;11.228;2022-07-23T07:21:22;20.70;99.90
12720;DHT22;6424;48.520;11.228;2022-07-23T07:24:03;20.70;99.90
12720;DHT22;6424;48.520;11.228;2022-07-23T07:26:43;20.70;99.90
12720;DHT22;6424;48.520;11.228;2022-07-23T07:29:24;20.80;99.90
12720;DHT22;6424;48.520;11.228;2022-07-23T07:32:05;20.90;99.90
12720;DHT22;6424;48.520;11.228;2022-07-23T07:34:46;20.90;99.90
12720;DHT22;6424;48.520;11.228;2022-07-23T07:37:27;20.90;99.90
12720;DHT22;6424;48.520;11.228;2022-07-23T07:40:08;20.90;99.90
12720;DHT22;6424;48.520;11.228;2022-07-23T07:42:53;20.90;99.90
12720;DHT22;6424;48.520;11.228;2022-07-23T07:45:23;20.90;99.90
12720;DHT22;6424;48.520;11.228;2022-07-23T07:48:05;20.90;99.90
12720;DHT22;6424;48.520;11.228;2022-07-23T07:50:46;20.90;99.90
12720;DHT22;6424;48.520;11.228;2022-07-23T07:53:27;21.00;99.90
12720;DHT22;6424;48.520;11.228;2022-07-23T07:56:07;21.10;99.90
12720;DHT22;6424;48.520;11.228;2022-07-23T07:58:48;21.20;99.90
12720;DHT22;6424;48.520;11.228;2022-07-23T08:01:29;21.20;99.90
12720;DHT22;6424;48.520;11.228;2022-07-23T08:04:10;21.30;99.90
12720;DHT22;6424;48.520;11.228;2022-07-23T08:06:51;21.40;99.90
12720;DHT22;6424;48.520;11.228;2022-07-23T08:09:32;21.40;99.90
12720;DHT22;6424;48.520;11.228;2022-07-23T08:12:13;21.50;99.90
12720;DHT22;6424;48.520;11.228;2022-07-23T08:14:53;21.50;99.90
12720;DHT22;6424;48.520;11.228;2022-07-23T08:17:34;21.60;99.90
12720;DHT22;6424;48.520;11.228;2022-07-23T08:20:17;21.70;99.90
12720;DHT22;6424;48.520;11.228;2022-07-23T08:25:37;21.90;99.90
12720;DHT22;6424;48.520;11.228;2022-07-23T08:28:18;22.00;99.90
12720;DHT22;6424;48.520;11.228;2022-07-23T08:30:59;22.20;99.90
12720;DHT22;6424;48.520;11.228;2022-07-23T08:33:40;22.20;99.90
12720;DHT22;6424;48.520;11.228;2022-07-23T08:36:21;22.20;99.90
12720;DHT22;6424;48.520;11.228;2022-07-23T08:39:02;22.30;99.90
12720;DHT22;6424;48.520;11.228;2022-07-23T08:41:44;22.30;99.90
12720;DHT22;6424;48.520;11.228;2022-07-23T08:44:24;22.30;99.90
12720;DHT22;6424;48.520;11.228;2022-07-23T08:47:06;22.50;99.90
12720;DHT22;6424;48.520;11.228;2022-07-23T08:49:47;22.70;99.90
12720;DHT22;6424;48.520;11.228;2022-07-23T08:52:30;23.00;99.90
12720;DHT22;6424;48.520;11.228;2022-07-23T08:55:11;23.10;99.90
12720;DHT22;6424;48.520;11.228;2022-07-23T08:57:52;23.50;99.90
12720;DHT22;6424;48.520;11.228;2022-07-23T09:00:33;23.80;99.90
12720;DHT22;6424;48.520;11.228;2022-07-23T09:03:29;24.10;99.90
12720;DHT22;6424;48.520;11.228;2022-07-23T09:06:10;24.40;99.90
12720;DHT22;6424;48.520;11.228;2022-07-23T09:08:50;24.70;99.90
12720;DHT22;6424;48.520;11.228;2022-07-23T09:11:31;25.00;99.90
12720;DHT22;6424;48.520;11.228;2022-07-23T09:13:57;25.20;99.90
12720;DHT22;6424;48.520;11.228;2022-07-23T09:16:41;25.30;99.90
12720;DHT22;6424;48.520;11.228;2022-07-23T09:19:27;25.50;99.90
12720;DHT22;6424;48.520;11.228;2022-07-23T09:22:24;25.60;99.90
12720;DHT22;6424;48.520;11.228;2022-07-23T09:25:12;25.80;99.90
12720;DHT22;6424;48.520;11.228;2022-07-23T09:27:59;25.90;99.90
12720;DHT22;6424;48.520;11.228;2022-07-23T09:30:43;26.00;99.90
12720;DHT22;6424;48.520;11.228;2022-07-23T09:33:29;26.10;99.90
12720;DHT22;6424;48.520;11.228;2022-07-23T09:36:10;26.20;99.90
12720;DHT22;6424;48.520;11.228;2022-07-23T09:38:52;26.30;99.90
12720;DHT22;6424;48.520;11.228;2022-07-23T09:41:44;26.40;99.90
12720;DHT22;6424;48.520;11.228;2022-07-23T09:44:25;26.50;99.90
12720;DHT22;6424;48.520;11.228;2022-07-23T09:47:07;26.60;99.90
12720;DHT22;6424;48.520;11.228;2022-07-23T09:50:08;26.70;99.90
12720;DHT22;6424;48.520;11.228;2022-07-23T09:52:49;26.80;99.90
12720;DHT22;6424;48.520;11.228;2022-07-23T09:55:32;26.80;99.90
12720;DHT22;6424;48.520;11.228;2022-07-23T09:58:17;26.80;99.90
12720;DHT22;6424;48.520;11.228;2022-07-23T10:01:02;26.80;99.90
12720;DHT22;6424;48.520;11.228;2022-07-23T10:03:43;26.90;99.90
12720;DHT22;6424;48.520;11.228;2022-07-23T10:06:26;27.00;99.90
12720;DHT22;6424;48.520;11.228;2022-07-23T10:09:08;27.00;99.90
12720;DHT22;6424;48.520;11.228;2022-07-23T10:11:54;27.10;99.90
12720;DHT22;6424;48.520;11.228;2022-07-23T10:14:21;27.30;99.90
12720;DHT22;6424;48.520;11.228;2022-07-23T10:17:03;27.50;99.90
12720;DHT22;6424;48.520;11.228;2022-07-23T10:19:44;27.70;99.90
12720;DHT22;6424;48.520;11.228;2022-07-23T10:29:11;27.90;99.90
12720;DHT22;6424;48.520;11.228;2022-07-23T10:37:44;28.20;99.50
12720;DHT22;6424;48.520;11.228;2022-07-23T10:40:17;28.20;99.50
12720;DHT22;6424;48.520;11.228;2022-07-23T10:42:59;28.10;98.00
12720;DHT22;6424;48.520;11.228;2022-07-23T10:48:24;27.70;97.30
12720;DHT22;6424;48.520;11.228;2022-07-23T10:51:13;27.60;98.30
12720;DHT22;6424;48.520;11.228;2022-07-23T10:53:59;27.80;98.20
12720;DHT22;6424;48.520;11.228;2022-07-23T10:57:03;27.90;96.60
12720;DHT22;6424;48.520;11.228;2022-07-23T11:02:58;28.20;96.40
12720;DHT22;6424;48.520;11.228;2022-07-23T11:05:44;28.50;95.30
12720;DHT22;6424;48.520;11.228;2022-07-23T11:08:25;28.60;95.50
12720;DHT22;6424;48.520;11.228;2022-07-23T11:13:48;28.60;95.00
12720;DHT22;6424;48.520;11.228;2022-07-23T11:16:29;28.50;94.60
12720;DHT22;6424;48.520;11.228;2022-07-23T11:19:10;28.50;94.70
12720;DHT22;6424;48.520;11.228;2022-07-23T11:21:51;28.30;94.90
12720;DHT22;6424;48.520;11.228;2022-07-23T11:24:50;28.10;95.60
12720;DHT22;6424;48.520;11.228;2022-07-23T11:27:41;28.10;96.40
12720;DHT22;6424;48.520;11.228;2022-07-23T11:36:03;28.70;94.00
12720;DHT22;6424;48.520;11.228;2022-07-23T11:38:44;28.90;95.10
12720;DHT22;6424;48.520;11.228;2022-07-23T11:41:25;29.10;94.20
12720;DHT22;6424;48.520;11.228;2022-07-23T11:44:27;29.40;93.40
12720;DHT22;6424;48.520;11.228;2022-07-23T11:46:57;29.40;93.00
12720;DHT22;6424;48.520;11.228;2022-07-23T11:49:38;29.20;93.00
12720;DHT22;6424;48.520;11.228;2022-07-23T11:52:19;29.10;92.10
12720;DHT22;6424;48.520;11.228;2022-07-23T11:57:45;29.30;91.30
12720;DHT22;6424;48.520;11.228;2022-07-23T12:00:28;29.40;90.70
12720;DHT22;6424;48.520;11.228;2022-07-23T12:03:10;29.30;90.80
12720;DHT22;6424;48.520;11.228;2022-07-23T12:05:56;29.20;89.20
12720;DHT22;6424;48.520;11.228;2022-07-23T12:08:23;29.10;90.10
12720;DHT22;6424;48.520;11.228;2022-07-23T12:11:06;29.00;90.50
12720;DHT22;6424;48.520;11.228;2022-07-23T12:13:56;28.90;90.10
12720;DHT22;6424;48.520;11.228;2022-07-23T12:16:37;28.80;90.70
12720;DHT22;6424;48.520;11.228;2022-07-23T12:19:18;28.70;90.70
12720;DHT22;6424;48.520;11.228;2022-07-23T12:21:59;28.80;91.40
12720;DHT22;6424;48.520;11.228;2022-07-23T12:24:58;29.00;91.70
12720;DHT22;6424;48.520;11.228;2022-07-23T12:27:39;29.20;90.40
12720;DHT22;6424;48.520;11.228;2022-07-23T12:30:26;29.40;90.10
12720;DHT22;6424;48.520;11.228;2022-07-23T12:32:55;29.50;88.70
12720;DHT22;6424;48.520;11.228;2022-07-23T12:35:42;29.70;87.60
12720;DHT22;6424;48.520;11.228;2022-07-23T12:38:26;29.80;86.50
12720;DHT22;6424;48.520;11.228;2022-07-23T12:41:07;29.80;83.60
12720;DHT22;6424;48.520;11.228;2022-07-23T12:43:48;29.70;84.90
12720;DHT22;6424;48.520;11.228;2022-07-23T12:46:33;29.60;85.00
12720;DHT22;6424;48.520;11.228;2022-07-23T12:49:00;29.60;84.70
12720;DHT22;6424;48.520;11.228;2022-07-23T12:51:40;29.70;86.10
12720;DHT22;6424;48.520;11.228;2022-07-23T12:54:27;29.70;82.70
12720;DHT22;6424;48.520;11.228;2022-07-23T12:57:08;29.70;82.20
12720;DHT22;6424;48.520;11.228;2022-07-23T12:59:34;29.80;82.00
12720;DHT22;6424;48.520;11.228;2022-07-23T13:02:15;29.90;81.50
12720;DHT22;6424;48.520;11.228;2022-07-23T13:04:55;29.80;81.50
12720;DHT22;6424;48.520;11.228;2022-07-23T13:07:36;29.80;81.10
12720;DHT22;6424;48.520;11.228;2022-07-23T13:10:17;29.70;82.10
12720;DHT22;6424;48.520;11.228;2022-07-23T13:12:58;29.70;82.50
12720;DHT22;6424;48.520;11.228;2022-07-23T13:15:38;29.50;81.50
12720;DHT22;6424;48.520;11.228;2022-07-23T13:18:19;29.30;82.90
12720;DHT22;6424;48.520;11.228;2022-07-23T13:21:03;29.10;82.50
12720;DHT22;6424;48.520;11.228;2022-07-23T13:23:29;29.00;83.80
12720;DHT22;6424;48.520;11.228;2022-07-23T13:26:10;28.80;85.00
12720;DHT22;6424;48.520;11.228;2022-07-23T13:28:36;28.80;83.90
12720;DHT22;6424;48.520;11.228;2022-07-23T13:31:17;28.60;84.50
12720;DHT22;6424;48.520;11.228;2022-07-23T13:33:58;28.40;85.80
12720;DHT22;6424;48.520;11.228;2022-07-23T13:36:39;28.30;85.10
12720;DHT22;6424;48.520;11.228;2022-07-23T13:39:19;28.10;85.40
12720;DHT22;6424;48.520;11.228;2022-07-23T13:42:00;28.00;87.10
12720;DHT22;6424;48.520;11.228;2022-07-23T13:44:41;27.80;86.70
12720;DHT22;6424;48.520;11.228;2022-07-23T13:47:07;27.70;87.70
12720;DHT22;6424;48.520;11.228;2022-07-23T13:49:32;27.60;88.30
12720;DHT22;6424;48.520;11.228;2022-07-23T13:52:13;27.50;88.70
12720;DHT22;6424;48.520;11.228;2022-07-23T13:54:54;27.50;90.20
12720;DHT22;6424;48.520;11.228;2022-07-23T13:57:36;27.40;90.40
12720;DHT22;6424;48.520;11.228;2022-07-23T14:00:17;27.30;91.30
12720;DHT22;6424;48.520;11.228;2022-07-23T14:02:58;27.10;90.50
12720;DHT22;6424;48.520;11.228;2022-07-23T14:05:39;26.70;92.00
12720;DHT22;6424;48.520;11.228;2022-07-23T14:08:21;26.30;94.30
12720;DHT22;6424;48.520;11.228;2022-07-23T14:11:02;26.10;95.80
12720;DHT22;6424;48.520;11.228;2022-07-23T14:13:43;26.00;95.30
12720;DHT22;6424;48.520;11.228;2022-07-23T14:16:09;25.80;96.60
12720;DHT22;6424;48.520;11.228;2022-07-23T14:18:49;25.70;97.20
12720;DHT22;6424;48.520;11.228;2022-07-23T14:21:30;25.60;97.60
12720;DHT22;6424;48.520;11.228;2022-07-23T14:24:11;25.60;97.80
12720;DHT22;6424;48.520;11.228;2022-07-23T14:26:52;25.70;98.10
12720;DHT22;6424;48.520;11.228;2022-07-23T14:29:33;26.10;99.30
12720;DHT22;6424;48.520;11.228;2022-07-23T14:32:14;26.50;98.50
12720;DHT22;6424;48.520;11.228;2022-07-23T14:34:55;26.80;97.40
12720;DHT22;6424;48.520;11.228;2022-07-23T14:37:35;27.00;95.80
12720;DHT22;6424;48.520;11.228;2022-07-23T14:40:16;27.20;96.50
12720;DHT22;6424;48.520;11.228;2022-07-23T14:42:57;27.50;95.90
12720;DHT22;6424;48.520;11.228;2022-07-23T14:45:38;27.70;94.80
12720;DHT22;6424;48.520;11.228;2022-07-23T14:48:19;27.90;95.10
12720;DHT22;6424;48.520;11.228;2022-07-23T14:51:00;28.00;94.60
12720;DHT22;6424;48.520;11.228;2022-07-23T14:53:41;28.10;94.20
12720;DHT22;6424;48.520;11.228;2022-07-23T14:56:21;28.10;94.30
12720;DHT22;6424;48.520;11.228;2022-07-23T14:59:06;28.10;94.20
12720;DHT22;6424;48.520;11.228;2022-07-23T15:01:47;28.00;92.80
12720;DHT22;6424;48.520;11.228;2022-07-23T15:04:28;28.00;93.30
12720;DHT22;6424;48.520;11.228;2022-07-23T15:07:08;28.10;93.80
12720;DHT22;6424;48.520;11.228;2022-07-23T15:09:49;28.30;92.20
12720;DHT22;6424;48.520;11.228;2022-07-23T15:12:15;28.40;91.70
12720;DHT22;6424;48.520;11.228;2022-07-23T15:14:56;28.40;91.40
12720;DHT22;6424;48.520;11.228;2022-07-23T15:17:37;28.30;92.10
12720;DHT22;6424;48.520;11.228;2022-07-23T15:20:03;28.10;92.50
12720;DHT22;6424;48.520;11.228;2022-07-23T15:22:44;27.90;91.20
12720;DHT22;6424;48.520;11.228;2022-07-23T15:25:10;27.80;90.70
12720;DHT22;6424;48.520;11.228;2022-07-23T15:27:51;27.60;90.40
12720;DHT22;6424;48.520;11.228;2022-07-23T15:30:32;27.40;90.00
12720;DHT22;6424;48.520;11.228;2022-07-23T15:33:13;27.20;90.90
12720;DHT22;6424;48.520;11.228;2022-07-23T15:35:54;27.10;90.60
12720;DHT22;6424;48.520;11.228;2022-07-23T15:38:24;27.10;90.90
12720;DHT22;6424;48.520;11.228;2022-07-23T15:41:05;27.00;90.80
12720;DHT22;6424;48.520;11.228;2022-07-23T15:43:46;27.00;90.50
12720;DHT22;6424;48.520;11.228;2022-07-23T15:46:27;27.00;90.60
12720;DHT22;6424;48.520;11.228;2022-07-23T15:49:09;27.00;90.40
12720;DHT22;6424;48.520;11.228;2022-07-23T15:51:49;27.10;90.10
12720;DHT22;6424;48.520;11.228;2022-07-23T15:54:30;27.10;89.40
12720;DHT22;6424;48.520;11.228;2022-07-23T15:57:12;27.00;89.10
12720;DHT22;6424;48.520;11.228;2022-07-23T15:59:52;27.00;87.30
12720;DHT22;6424;48.520;11.228;2022-07-23T16:02:36;27.00;89.10
12720;DHT22;6424;48.520;11.228;2022-07-23T16:05:02;27.00;89.50
12720;DHT22;6424;48.520;11.228;2022-07-23T16:08:03;27.10;89.30
12720;DHT22;6424;48.520;11.228;2022-07-23T16:10:44;27.30;87.30
12720;DHT22;6424;48.520;11.228;2022-07-23T16:13:26;27.40;87.20
12720;DHT22;6424;48.520;11.228;2022-07-23T16:16:07;27.60;88.50
12720;DHT22;6424;48.520;11.228;2022-07-23T16:18:49;27.60;87.00
12720;DHT22;6424;48.520;11.228;2022-07-23T16:21:31;27.60;87.30
12720;DHT22;6424;48.520;11.228;2022-07-23T16:24:12;27.60;86.80
12720;DHT22;6424;48.520;11.228;2022-07-23T16:26:53;27.80;86.30
12720;DHT22;6424;48.520;11.228;2022-07-23T16:29:34;28.00;80.50
12720;DHT22;6424;48.520;11.228;2022-07-23T16:32:14;28.00;80.70
12720;DHT22;6424;48.520;11.228;2022-07-23T16:34:55;28.10;82.00
12720;DHT22;6424;48.520;11.228;2022-07-23T16:37:36;28.10;80.80
12720;DHT22;6424;48.520;11.228;2022-07-23T16:40:17;28.10;81.70
12720;DHT22;6424;48.520;11.228;2022-07-23T16:42:59;28.10;80.30
12720;DHT22;6424;48.520;11.228;2022-07-23T16:45:39;28.10;80.70
12720;DHT22;6424;48.520;11.228;2022-07-23T16:48:20;28.10;80.00
12720;DHT22;6424;48.520;11.228;2022-07-23T16:51:01;28.10;79.50
12720;DHT22;6424;48.520;11.228;2022-07-23T16:53:42;27.90;78.70
12720;DHT22;6424;48.520;11.228;2022-07-23T16:56:23;27.90;80.10
12720;DHT22;6424;48.520;11.228;2022-07-23T16:59:04;27.80;79.20
12720;DHT22;6424;48.520;11.228;2022-07-23T17:01:45;27.70;80.90
12720;DHT22;6424;48.520;11.228;2022-07-23T17:04:27;27.70;80.90
12720;DHT22;6424;48.520;11.228;2022-07-23T17:07:08;27.60;80.10
12720;DHT22;6424;48.520;11.228;2022-07-23T17:09:34;27.50;80.50
12720;DHT22;6424;48.520;11.228;2022-07-23T17:12:15;27.40;80.70
12720;DHT22;6424;48.520;11.228;2022-07-23T17:14:41;27.20;81.50
12720;DHT22;6424;48.520;11.228;2022-07-23T17:17:22;27.00;82.80
12720;DHT22;6424;48.520;11.228;2022-07-23T17:20:05;26.80;83.50
12720;DHT22;6424;48.520;11.228;2022-07-23T17:22:46;26.70;84.00
12720;DHT22;6424;48.520;11.228;2022-07-23T17:25:27;26.50;84.10